Time;durP1;ratioP1;P1;durP2;ratioP2;P2;SDS_P1;SDS_P2;PMS_P1;PMS_P2;Temp;Humidity;BMP_temperature;BMP_pressure;BME280_temperature;BME280_humidity;BME280_pressure;Samples;Min_cycle;Max_cycle;Signal;HPM_P1;HPM_P2
2023/09/30 00:00:42;;;;;;;25.67;11.05;;;;;;;;;;4997978;28;20236;-44
2023/09/30 00:03:10;;;;;;;28.83;11.88;;;;;;;;;;5002336;28;20185;-45
2023/09/30 00:05:36;;;;;;;27.13;11.25;;;;;;;;;;5007777;28;20692;-45
2023/09/30 00:08:03;;;;;;;30.42;11.27;;;;;;;;;;4991928;28;20274;-45
2023/09/30 00:10:30;;;;;;;27.00;11.15;;;;;;;;;;5006213;28;20234;-45
2023/09/30 00:12:56;;;;;;;25.42;10.30;;;;;;;;;;5003783;28;20504;-45
2023/09/30 00:15:22;;;;;;;27.17;10.27;;;;;;;;;;4999085;28;20213;-45
2023/09/30 00:17:47;;;;;;;21.88;9.02;;;;;;;;;;4992032;28;20216;-45
2023/09/30 00:20:14;;;;;;;22.83;9.50;;;;;;;;;;4996240;28;20221;-45
2023/09/30 00:22:41;;;;;;;23.20;8.98;;;;;;;;;;4989133;28;20561;-45
2023/09/30 00:25:07;;;;;;;17.98;8.60;;;;;;;;;;4993326;28;20280;-45
2023/09/30 00:27:33;;;;;;;22.50;9.05;;;;;;;;;;5005663;28;20464;-44
2023/09/30 00:29:59;;;;;;;20.50;8.75;;;;;;;;;;5004696;28;20489;-44
2023/09/30 00:32:25;;;;;;;20.52;8.95;;;;;;;;;;4996202;28;20224;-44
2023/09/30 00:34:52;;;;;;;20.80;8.48;;;;;;;;;;4991683;28;20186;-44
2023/09/30 00:37:18;;;;;;;18.83;7.25;;;;;;;;;;5004600;28;20184;-45
2023/09/30 00:39:44;;;;;;;16.30;6.93;;;;;;;;;;4992929;28;20775;-45
2023/09/30 00:42:10;;;;;;;13.80;5.90;;;;;;;;;;4996045;28;20188;-45
2023/09/30 00:44:36;;;;;;;11.70;5.60;;;;;;;;;;4989714;28;20521;-45
2023/09/30 00:47:02;;;;;;;12.82;5.53;;;;;;;;;;4988095;28;20190;-45
2023/09/30 00:49:28;;;;;;;12.98;5.55;;;;;;;;;;4994425;28;20176;-45
2023/09/30 00:51:55;;;;;;;11.07;4.85;;;;;;;;;;5000109;28;20200;-45
2023/09/30 00:54:22;;;;;;;8.93;3.97;;;;;;;;;;4996385;28;20387;-48
2023/09/30 00:56:49;;;;;;;9.23;3.80;;;;;;;;;;4993869;28;20525;-47
2023/09/30 00:59:16;;;;;;;8.50;3.50;;;;;;;;;;4997302;28;20558;-47
2023/09/30 01:01:45;;;;;;;7.18;3.47;;;;;;;;;;4988152;28;20271;-47
2023/09/30 01:04:11;;;;;;;6.75;3.25;;;;;;;;;;5006001;28;20192;-47
2023/09/30 01:06:37;;;;;;;7.25;3.58;;;;;;;;;;5005537;28;20235;-47
2023/09/30 01:09:04;;;;;;;5.75;3.03;;;;;;;;;;4992709;28;20193;-47
2023/09/30 01:11:30;;;;;;;7.13;2.90;;;;;;;;;;5003553;28;20646;-47
2023/09/30 01:13:57;;;;;;;6.30;2.50;;;;;;;;;;4990770;28;20321;-47
2023/09/30 01:16:23;;;;;;;5.78;2.95;;;;;;;;;;5002164;28;20173;-47
2023/09/30 01:18:49;;;;;;;6.07;2.38;;;;;;;;;;5006459;28;20201;-47
2023/09/30 01:21:15;;;;;;;4.97;2.45;;;;;;;;;;5015646;28;20208;-47
2023/09/30 01:23:43;;;;;;;5.85;2.63;;;;;;;;;;5001979;28;20325;-47
2023/09/30 01:26:12;;;;;;;7.82;3.15;;;;;;;;;;5009847;28;20205;-47
2023/09/30 01:28:38;;;;;;;4.93;2.58;;;;;;;;;;5007860;28;20183;-47
2023/09/30 01:31:05;;;;;;;5.40;2.70;;;;;;;;;;5011487;28;20215;-47
2023/09/30 01:33:31;;;;;;;5.00;2.88;;;;;;;;;;5004704;28;21009;-48
2023/09/30 01:35:57;;;;;;;5.38;2.80;;;;;;;;;;4998647;28;20193;-47
2023/09/30 01:38:23;;;;;;;4.53;2.47;;;;;;;;;;5005116;28;20243;-47
2023/09/30 01:40:49;;;;;;;5.28;2.58;;;;;;;;;;5001584;28;20232;-48
2023/09/30 01:43:16;;;;;;;4.15;2.47;;;;;;;;;;4993994;28;20188;-47
2023/09/30 01:45:42;;;;;;;4.45;2.90;;;;;;;;;;5004671;28;20224;-47
2023/09/30 01:48:10;;;;;;;2.70;2.30;;;;;;;;;;4996481;28;20216;-47
2023/09/30 01:50:36;;;;;;;5.53;2.47;;;;;;;;;;5006331;28;20181;-47
2023/09/30 01:53:02;;;;;;;5.10;2.58;;;;;;;;;;5001590;28;20188;-47
2023/09/30 01:55:28;;;;;;;4.97;2.35;;;;;;;;;;5004193;28;20230;-47
2023/09/30 01:57:54;;;;;;;4.82;2.38;;;;;;;;;;4997444;28;20457;-47
2023/09/30 02:00:20;;;;;;;3.53;2.20;;;;;;;;;;5000033;28;20200;-48
2023/09/30 02:02:46;;;;;;;3.10;2.00;;;;;;;;;;4998481;28;20181;-47
2023/09/30 02:05:13;;;;;;;3.28;2.50;;;;;;;;;;5001564;28;20471;-47
2023/09/30 02:07:39;;;;;;;3.50;1.90;;;;;;;;;;4998935;28;20201;-47
2023/09/30 02:10:05;;;;;;;3.47;2.08;;;;;;;;;;4997834;28;20196;-47
2023/09/30 02:12:31;;;;;;;3.90;2.30;;;;;;;;;;5008073;28;20451;-47
2023/09/30 02:14:58;;;;;;;4.95;1.80;;;;;;;;;;4990251;28;20562;-47
2023/09/30 02:17:24;;;;;;;3.15;1.95;;;;;;;;;;4993816;28;20887;-47
2023/09/30 02:19:50;;;;;;;3.97;1.98;;;;;;;;;;4998992;28;20201;-47
2023/09/30 02:22:17;;;;;;;3.10;1.83;;;;;;;;;;4994422;28;20264;-47
2023/09/30 02:24:42;;;;;;;2.22;1.80;;;;;;;;;;4995654;28;20192;-47
2023/09/30 02:27:08;;;;;;;2.65;1.60;;;;;;;;;;5003754;28;20180;-47
2023/09/30 02:29:34;;;;;;;1.58;1.10;;;;;;;;;;5004834;28;20195;-47
2023/09/30 02:32:00;;;;;;;2.33;1.55;;;;;;;;;;4999543;28;20498;-47
2023/09/30 02:34:26;;;;;;;2.90;1.80;;;;;;;;;;5016829;28;20185;-47
2023/09/30 02:36:55;;;;;;;2.15;1.15;;;;;;;;;;5006426;28;20262;-47
2023/09/30 02:39:21;;;;;;;2.30;1.70;;;;;;;;;;5000213;28;20485;-47
2023/09/30 02:41:49;;;;;;;1.80;1.33;;;;;;;;;;5012040;28;20189;-48
2023/09/30 02:44:15;;;;;;;4.03;1.60;;;;;;;;;;5007140;28;20192;-47
2023/09/30 02:46:41;;;;;;;2.15;1.40;;;;;;;;;;4994176;28;20223;-47
2023/09/30 02:49:07;;;;;;;1.90;1.42;;;;;;;;;;5002843;28;20184;-47
2023/09/30 02:51:33;;;;;;;5.60;1.85;;;;;;;;;;4995442;28;20200;-48
2023/09/30 02:53:59;;;;;;;2.42;1.70;;;;;;;;;;5000216;28;20579;-47
2023/09/30 02:56:26;;;;;;;3.13;1.60;;;;;;;;;;5001844;28;20199;-47
2023/09/30 02:58:52;;;;;;;3.92;2.10;;;;;;;;;;4996950;28;20271;-47
2023/09/30 03:01:18;;;;;;;2.53;1.80;;;;;;;;;;5000065;28;20488;-47
2023/09/30 03:03:44;;;;;;;3.35;2.05;;;;;;;;;;5005180;28;20433;-47
2023/09/30 03:06:10;;;;;;;4.22;1.90;;;;;;;;;;4996401;28;20323;-47
2023/09/30 03:08:36;;;;;;;2.47;1.67;;;;;;;;;;4998053;28;20239;-47
2023/09/30 03:11:03;;;;;;;3.47;1.95;;;;;;;;;;5002121;28;20563;-48
2023/09/30 03:13:29;;;;;;;5.00;1.88;;;;;;;;;;4996691;28;20428;-47
2023/09/30 03:15:56;;;;;;;2.95;2.00;;;;;;;;;;5007893;28;20189;-47
2023/09/30 03:18:26;;;;;;;3.55;1.98;;;;;;;;;;4995104;28;20209;-47
2023/09/30 03:20:56;;;;;;;4.63;2.10;;;;;;;;;;5002109;28;20176;-47
2023/09/30 03:23:22;;;;;;;3.50;2.20;;;;;;;;;;4995749;28;20185;-47
2023/09/30 03:25:48;;;;;;;3.72;2.28;;;;;;;;;;5001603;28;20464;-47
2023/09/30 03:28:14;;;;;;;3.53;2.08;;;;;;;;;;5001180;28;20232;-47
2023/09/30 03:30:40;;;;;;;3.92;2.33;;;;;;;;;;4992185;28;20192;-47
2023/09/30 03:33:06;;;;;;;3.97;2.22;;;;;;;;;;4995239;28;20638;-47
2023/09/30 03:35:32;;;;;;;4.90;2.13;;;;;;;;;;4995899;28;20189;-47
2023/09/30 03:37:58;;;;;;;5.03;2.47;;;;;;;;;;5004122;28;20193;-47
2023/09/30 03:40:28;;;;;;;2.97;2.40;;;;;;;;;;5003261;28;20184;-47
2023/09/30 03:42:54;;;;;;;4.65;2.40;;;;;;;;;;5000216;28;20192;-47
2023/09/30 03:45:20;;;;;;;4.82;1.98;;;;;;;;;;4994517;28;20204;-47
2023/09/30 03:47:47;;;;;;;3.47;2.10;;;;;;;;;;5001869;28;20219;-47
2023/09/30 03:50:14;;;;;;;6.28;2.70;;;;;;;;;;5000261;28;20177;-47
2023/09/30 03:52:43;;;;;;;4.63;2.30;;;;;;;;;;4993353;28;20231;-47
2023/09/30 03:55:11;;;;;;;8.90;2.15;;;;;;;;;;4994950;28;20193;-47
2023/09/30 03:57:37;;;;;;;4.47;2.50;;;;;;;;;;5007898;28;20242;-47
2023/09/30 04:00:07;;;;;;;6.47;2.47;;;;;;;;;;4987294;28;20216;-47
2023/09/30 04:02:33;;;;;;;5.53;2.45;;;;;;;;;;4990335;28;20187;-47
2023/09/30 04:05:03;;;;;;;4.07;2.42;;;;;;;;;;5001168;28;20222;-47
2023/09/30 04:07:29;;;;;;;11.70;4.30;;;;;;;;;;5003524;28;20246;-47
2023/09/30 04:09:55;;;;;;;37.63;9.27;;;;;;;;;;4999423;28;20220;-47
2023/09/30 04:12:25;;;;;;;46.13;12.52;;;;;;;;;;4996563;28;20192;-47
2023/09/30 04:14:52;;;;;;;96.72;17.25;;;;;;;;;;4992959;28;20195;-47
2023/09/30 04:17:18;;;;;;;80.63;18.17;;;;;;;;;;4995997;28;20182;-47
2023/09/30 04:19:44;;;;;;;54.85;13.23;;;;;;;;;;5001096;28;20205;-47
2023/09/30 04:22:10;;;;;;;58.35;12.32;;;;;;;;;;4997916;28;20181;-47
2023/09/30 04:24:36;;;;;;;42.83;9.57;;;;;;;;;;5003256;28;20213;-47
2023/09/30 04:27:04;;;;;;;39.20;9.48;;;;;;;;;;5001731;28;20237;-47
2023/09/30 04:29:30;;;;;;;32.20;7.60;;;;;;;;;;4993340;28;20182;-47
2023/09/30 04:31:57;;;;;;;24.73;7.13;;;;;;;;;;4997528;28;20188;-47
2023/09/30 04:34:23;;;;;;;26.67;7.05;;;;;;;;;;4997658;28;20185;-47
2023/09/30 04:36:48;;;;;;;29.58;7.18;;;;;;;;;;5001069;28;20588;-47
2023/09/30 04:39:15;;;;;;;24.23;6.45;;;;;;;;;;5003439;28;20270;-45
2023/09/30 04:41:41;;;;;;;20.98;5.65;;;;;;;;;;5006033;28;20260;-45
2023/09/30 04:44:09;;;;;;;17.95;5.05;;;;;;;;;;5002740;28;20180;-46
2023/09/30 04:46:35;;;;;;;16.35;4.88;;;;;;;;;;5011917;28;20200;-46
2023/09/30 04:49:04;;;;;;;19.38;5.60;;;;;;;;;;5001604;28;20300;-46
2023/09/30 04:51:33;;;;;;;17.35;5.18;;;;;;;;;;5001103;28;20186;-46
2023/09/30 04:53:59;;;;;;;15.93;4.88;;;;;;;;;;5004264;28;20200;-46
2023/09/30 04:56:25;;;;;;;19.08;4.90;;;;;;;;;;5005951;28;20185;-47
2023/09/30 04:58:51;;;;;;;19.13;5.72;;;;;;;;;;5006287;28;20279;-47
2023/09/30 05:01:18;;;;;;;14.80;4.47;;;;;;;;;;4995895;28;20324;-46
2023/09/30 05:03:44;;;;;;;13.68;4.60;;;;;;;;;;5009231;28;20595;-47
2023/09/30 05:06:10;;;;;;;18.65;4.75;;;;;;;;;;4995860;28;20267;-47
2023/09/30 05:08:36;;;;;;;14.30;4.15;;;;;;;;;;5001189;28;20323;-47
2023/09/30 05:11:05;;;;;;;13.10;3.95;;;;;;;;;;5007636;28;20199;-46
2023/09/30 05:13:31;;;;;;;11.45;4.28;;;;;;;;;;5009549;28;20218;-46
2023/09/30 05:15:57;;;;;;;11.85;3.85;;;;;;;;;;5010657;28;20224;-46
2023/09/30 05:18:23;;;;;;;12.60;3.83;;;;;;;;;;4999094;28;20201;-46
2023/09/30 05:20:50;;;;;;;12.70;3.53;;;;;;;;;;5009172;28;20252;-47
2023/09/30 05:23:17;;;;;;;14.25;3.72;;;;;;;;;;4991303;28;20320;-46
2023/09/30 05:25:43;;;;;;;14.32;4.00;;;;;;;;;;5009332;28;20604;-46
2023/09/30 05:28:10;;;;;;;17.15;4.80;;;;;;;;;;5009993;28;20204;-46
2023/09/30 05:30:36;;;;;;;13.50;4.70;;;;;;;;;;4996697;28;20272;-46
2023/09/30 05:33:03;;;;;;;18.90;5.18;;;;;;;;;;5001940;28;20189;-46
2023/09/30 05:35:29;;;;;;;12.85;3.97;;;;;;;;;;5007161;28;20292;-46
2023/09/30 05:37:55;;;;;;;11.07;4.30;;;;;;;;;;5006546;28;20180;-47
2023/09/30 05:40:23;;;;;;;14.38;4.18;;;;;;;;;;5001252;28;20536;-47
2023/09/30 05:42:49;;;;;;;9.70;3.30;;;;;;;;;;5005073;28;20459;-47
2023/09/30 05:45:15;;;;;;;12.55;3.60;;;;;;;;;;5008725;28;20215;-47
2023/09/30 05:47:41;;;;;;;8.80;3.33;;;;;;;;;;5004871;28;20229;-47
2023/09/30 05:50:16;;;;;;;7.28;3.30;;;;;;;;;;5005239;28;20488;-47
2023/09/30 05:52:42;;;;;;;11.90;3.90;;;;;;;;;;5009835;28;20511;-47
2023/09/30 05:55:09;;;;;;;9.32;3.20;;;;;;;;;;5002976;28;20805;-47
2023/09/30 05:57:35;;;;;;;11.20;3.22;;;;;;;;;;5007144;28;20188;-47
2023/09/30 06:00:02;;;;;;;9.57;2.95;;;;;;;;;;4999865;28;20209;-47
2023/09/30 06:02:29;;;;;;;6.75;2.70;;;;;;;;;;5001310;28;20215;-47
2023/09/30 06:04:56;;;;;;;9.45;3.05;;;;;;;;;;5008451;28;20465;-47
2023/09/30 06:07:23;;;;;;;5.05;2.38;;;;;;;;;;5007311;28;20260;-47
2023/09/30 06:09:49;;;;;;;7.60;2.58;;;;;;;;;;4994306;28;20240;-47
2023/09/30 06:12:15;;;;;;;10.15;3.25;;;;;;;;;;4990840;28;20185;-47
2023/09/30 06:14:41;;;;;;;7.25;2.90;;;;;;;;;;5004292;28;20570;-47
2023/09/30 06:17:08;;;;;;;8.13;2.63;;;;;;;;;;5007963;28;20194;-47
2023/09/30 06:19:34;;;;;;;6.88;2.85;;;;;;;;;;5007030;28;20553;-47
2023/09/30 06:22:03;;;;;;;5.75;2.55;;;;;;;;;;4999448;28;20212;-47
2023/09/30 06:24:29;;;;;;;7.55;2.35;;;;;;;;;;4992971;28;20557;-47
2023/09/30 06:26:55;;;;;;;6.15;2.55;;;;;;;;;;5009865;28;20188;-47
2023/09/30 06:29:21;;;;;;;5.55;2.50;;;;;;;;;;4995921;28;20272;-47
2023/09/30 06:31:47;;;;;;;6.45;2.22;;;;;;;;;;4991944;28;20176;-47
2023/09/30 06:34:13;;;;;;;11.05;2.70;;;;;;;;;;5001607;28;20430;-47
2023/09/30 06:36:39;;;;;;;7.40;2.58;;;;;;;;;;4991510;28;20190;-47
2023/09/30 06:39:05;;;;;;;4.15;2.22;;;;;;;;;;4988526;28;20226;-47
2023/09/30 06:41:33;;;;;;;5.88;2.38;;;;;;;;;;5002331;28;20184;-47
2023/09/30 06:43:59;;;;;;;4.80;2.05;;;;;;;;;;4987944;28;20730;-47
2023/09/30 06:46:25;;;;;;;7.45;2.30;;;;;;;;;;4990247;28;20212;-47
2023/09/30 06:48:52;;;;;;;7.25;2.28;;;;;;;;;;5000857;28;20268;-47
2023/09/30 06:51:18;;;;;;;3.47;1.70;;;;;;;;;;5005137;28;20180;-47
2023/09/30 06:53:45;;;;;;;4.63;2.03;;;;;;;;;;4995992;28;20189;-47
2023/09/30 06:56:12;;;;;;;5.97;1.98;;;;;;;;;;5001803;28;20484;-47
2023/09/30 06:58:38;;;;;;;7.82;2.30;;;;;;;;;;4993538;28;20598;-47
2023/09/30 07:01:04;;;;;;;5.30;2.03;;;;;;;;;;4996631;28;20224;-51
2023/09/30 07:03:32;;;;;;;4.90;1.98;;;;;;;;;;5004999;28;20181;-56
2023/09/30 07:06:00;;;;;;;7.18;2.25;;;;;;;;;;4993986;28;20906;-57
2023/09/30 07:08:26;;;;;;;4.50;2.10;;;;;;;;;;4996513;28;20189;-52
2023/09/30 07:10:52;;;;;;;11.18;2.45;;;;;;;;;;5000463;28;20197;-50
2023/09/30 07:13:18;;;;;;;7.63;2.10;;;;;;;;;;5006211;28;20271;-56
2023/09/30 07:15:45;;;;;;;3.63;2.10;;;;;;;;;;4991547;28;20185;-52
2023/09/30 07:18:12;;;;;;;10.45;2.75;;;;;;;;;;5007126;28;20192;-60
2023/09/30 07:20:38;;;;;;;2.78;1.80;;;;;;;;;;5007843;28;20184;-53
2023/09/30 07:23:04;;;;;;;7.93;1.98;;;;;;;;;;5001156;28;20189;-51
2023/09/30 07:25:32;;;;;;;5.82;2.20;;;;;;;;;;4999032;28;20215;-51
2023/09/30 07:28:00;;;;;;;6.03;2.22;;;;;;;;;;5000303;28;20188;-53
2023/09/30 07:30:26;;;;;;;3.05;1.70;;;;;;;;;;5004756;28;20564;-62
2023/09/30 07:32:52;;;;;;;5.35;2.50;;;;;;;;;;5001660;28;20188;-63
2023/09/30 07:35:18;;;;;;;4.90;1.92;;;;;;;;;;4991112;28;20189;-64
2023/09/30 07:37:44;;;;;;;9.43;2.42;;;;;;;;;;4996889;28;20174;-65
2023/09/30 07:40:11;;;;;;;3.65;2.17;;;;;;;;;;5003580;28;20496;-63
2023/09/30 07:42:37;;;;;;;8.82;2.28;;;;;;;;;;4997380;28;20181;-63
2023/09/30 07:45:04;;;;;;;5.60;2.13;;;;;;;;;;5005282;28;20238;-63
2023/09/30 07:47:33;;;;;;;4.85;2.17;;;;;;;;;;5007644;28;20184;-62
2023/09/30 07:50:00;;;;;;;7.93;2.35;;;;;;;;;;5002380;28;20201;-63
2023/09/30 07:52:26;;;;;;;6.18;2.53;;;;;;;;;;5007835;28;20487;-63
2023/09/30 07:54:52;;;;;;;6.75;2.60;;;;;;;;;;4995037;28;20189;-63
2023/09/30 07:57:18;;;;;;;5.28;2.30;;;;;;;;;;4995843;28;20267;-63
2023/09/30 07:59:44;;;;;;;3.90;2.05;;;;;;;;;;4999832;28;20210;-62
2023/09/30 08:02:10;;;;;;;6.30;2.13;;;;;;;;;;5008462;28;20224;-62
2023/09/30 08:04:36;;;;;;;9.35;1.95;;;;;;;;;;5011333;28;20742;-62
2023/09/30 08:07:02;;;;;;;3.50;1.95;;;;;;;;;;5002649;28;20184;-62
2023/09/30 08:09:28;;;;;;;5.13;2.20;;;;;;;;;;5006612;28;20191;-63
2023/09/30 08:11:55;;;;;;;3.90;1.90;;;;;;;;;;5001249;28;20244;-63
2023/09/30 08:14:21;;;;;;;7.63;2.60;;;;;;;;;;5001788;28;20284;-63
2023/09/30 08:16:49;;;;;;;6.40;2.25;;;;;;;;;;4991784;28;20284;-63
2023/09/30 08:19:15;;;;;;;5.03;1.98;;;;;;;;;;4998890;28;20193;-62
2023/09/30 08:21:41;;;;;;;4.03;2.03;;;;;;;;;;5002312;28;20487;-62
2023/09/30 08:24:08;;;;;;;5.50;2.22;;;;;;;;;;4985109;28;20864;-62
2023/09/30 08:26:35;;;;;;;4.82;2.08;;;;;;;;;;5000479;28;20177;-62
2023/09/30 08:29:01;;;;;;;7.28;2.35;;;;;;;;;;5003217;28;20188;-62
2023/09/30 08:31:28;;;;;;;3.65;1.88;;;;;;;;;;5002733;28;20237;-62
2023/09/30 08:33:54;;;;;;;7.68;1.90;;;;;;;;;;4993460;28;20267;-62
2023/09/30 08:36:20;;;;;;;4.03;1.70;;;;;;;;;;5004160;28;20377;-62
2023/09/30 08:38:47;;;;;;;4.88;2.17;;;;;;;;;;5005569;28;20477;-62
2023/09/30 08:41:25;;;;;;;4.57;2.13;;;;;;;;;;5011549;28;20299;-62
2023/09/30 08:43:53;;;;;;;9.13;1.70;;;;;;;;;;5007864;28;20183;-62
2023/09/30 08:46:19;;;;;;;5.47;1.88;;;;;;;;;;4996506;28;20194;-63
2023/09/30 08:48:46;;;;;;;7.45;2.67;;;;;;;;;;4988969;28;20181;-63
2023/09/30 08:51:12;;;;;;;6.13;2.13;;;;;;;;;;4996206;28;20193;-62
2023/09/30 08:53:38;;;;;;;4.50;1.63;;;;;;;;;;4995191;28;20640;-62
2023/09/30 08:56:09;;;;;;;7.10;2.08;;;;;;;;;;5010170;28;20198;-62
2023/09/30 08:58:35;;;;;;;7.78;2.08;;;;;;;;;;4995775;28;20277;-62
2023/09/30 09:01:01;;;;;;;6.20;1.90;;;;;;;;;;5003981;28;20185;-62
2023/09/30 09:03:29;;;;;;;5.25;1.98;;;;;;;;;;5005254;28;20187;-63
2023/09/30 09:06:04;;;;;;;5.75;2.22;;;;;;;;;;5002164;28;20205;-62
2023/09/30 09:08:32;;;;;;;8.98;2.28;;;;;;;;;;5003772;28;20203;-62
2023/09/30 09:10:58;;;;;;;6.93;2.00;;;;;;;;;;5009602;28;20202;-62
2023/09/30 09:13:25;;;;;;;4.20;1.90;;;;;;;;;;5001163;28;20215;-62
2023/09/30 09:16:06;;;;;;;4.63;1.73;;;;;;;;;;5002952;28;20193;-62
2023/09/30 09:18:33;;;;;;;6.60;1.58;;;;;;;;;;5009860;28;20482;-62
2023/09/30 09:21:30;;;;;;;5.97;2.17;;;;;;;;;;5010086;28;20184;-62
2023/09/30 09:23:57;;;;;;;7.22;2.00;;;;;;;;;;5009651;28;20204;-63
2023/09/30 09:26:25;;;;;;;6.80;2.42;;;;;;;;;;5012552;28;20164;-62
2023/09/30 09:28:51;;;;;;;6.93;2.20;;;;;;;;;;5015340;28;20195;-62
2023/09/30 09:31:21;;;;;;;4.95;2.10;;;;;;;;;;5000959;28;20244;-62
2023/09/30 09:33:47;;;;;;;6.50;2.50;;;;;;;;;;5004546;28;20169;-62
2023/09/30 09:36:13;;;;;;;10.13;2.45;;;;;;;;;;5007412;28;20188;-62
2023/09/30 09:38:54;;;;;;;6.90;1.85;;;;;;;;;;5006515;28;20236;-62
2023/09/30 09:41:21;;;;;;;11.07;2.20;;;;;;;;;;5002919;28;20176;-62
2023/09/30 09:43:53;;;;;;;7.45;2.40;;;;;;;;;;4994752;28;20206;-62
2023/09/30 09:46:19;;;;;;;4.35;1.52;;;;;;;;;;5007890;28;20184;-62
2023/09/30 09:48:47;;;;;;;12.57;2.63;;;;;;;;;;5006776;28;20189;-62
2023/09/30 09:51:14;;;;;;;7.40;2.17;;;;;;;;;;5006565;28;20184;-62
2023/09/30 09:53:41;;;;;;;5.57;1.90;;;;;;;;;;4998783;28;20191;-62
2023/09/30 09:56:12;;;;;;;5.28;1.70;;;;;;;;;;5007506;28;20195;-62
2023/09/30 09:58:38;;;;;;;4.85;1.80;;;;;;;;;;5002423;28;20204;-63
2023/09/30 10:01:06;;;;;;;5.25;1.55;;;;;;;;;;5006663;28;20208;-63
2023/09/30 10:03:32;;;;;;;6.50;2.20;;;;;;;;;;5008133;28;20191;-62
2023/09/30 10:05:59;;;;;;;4.03;1.67;;;;;;;;;;4998769;28;20193;-62
2023/09/30 10:08:30;;;;;;;5.90;2.08;;;;;;;;;;4999411;28;20184;-61
2023/09/30 10:10:58;;;;;;;3.72;1.42;;;;;;;;;;5008866;28;20192;-62
2023/09/30 10:13:42;;;;;;;4.30;1.98;;;;;;;;;;4998615;28;20188;-62
2023/09/30 10:16:08;;;;;;;4.90;1.67;;;;;;;;;;5005326;28;20192;-62
2023/09/30 10:18:54;;;;;;;5.03;1.60;;;;;;;;;;4998301;28;20204;-62
2023/09/30 10:21:20;;;;;;;6.80;1.83;;;;;;;;;;4995695;28;20181;-61
2023/09/30 10:23:46;;;;;;;9.98;1.85;;;;;;;;;;4999405;28;20223;-62
2023/09/30 10:26:17;;;;;;;7.63;2.28;;;;;;;;;;5007121;28;20475;-62
2023/09/30 10:28:49;;;;;;;5.00;1.65;;;;;;;;;;4999728;28;20176;-61
2023/09/30 10:31:48;;;;;;;3.88;1.88;;;;;;;;;;4999384;28;20200;-62
2023/09/30 10:34:07;;;;;;;2.80;1.58;;;;;;;;;;4992649;28;20500;-61
2023/09/30 10:36:34;;;;;;;6.55;1.67;;;;;;;;;;4996928;28;20182;-62
2023/09/30 10:39:00;;;;;;;2.80;1.60;;;;;;;;;;4995918;28;20608;-62
2023/09/30 10:41:41;;;;;;;4.22;1.60;;;;;;;;;;4996695;28;20169;-62
2023/09/30 10:44:22;;;;;;;4.78;2.00;;;;;;;;;;4993238;28;20177;-62
2023/09/30 10:46:56;;;;;;;4.28;1.85;;;;;;;;;;4987402;28;20191;-62
2023/09/30 10:49:34;;;;;;;6.78;2.00;;;;;;;;;;5006311;28;20185;-62
2023/09/30 10:52:00;;;;;;;2.63;1.35;;;;;;;;;;5003639;28;20181;-61
2023/09/30 10:54:30;;;;;;;5.60;1.77;;;;;;;;;;4996032;28;20181;-61
2023/09/30 10:56:59;;;;;;;3.88;1.45;;;;;;;;;;5002157;28;20181;-61
2023/09/30 10:59:30;;;;;;;3.78;1.40;;;;;;;;;;5001718;28;20319;-61
2023/09/30 11:01:56;;;;;;;3.97;1.60;;;;;;;;;;5004654;28;20189;-62
2023/09/30 11:04:22;;;;;;;4.80;1.30;;;;;;;;;;5009162;28;20508;-62
2023/09/30 11:06:51;;;;;;;5.93;1.83;;;;;;;;;;4991882;28;20214;-62
2023/09/30 11:09:17;;;;;;;2.28;1.33;;;;;;;;;;5002904;28;20185;-62
2023/09/30 11:11:48;;;;;;;3.85;1.27;;;;;;;;;;5003581;28;20181;-62
2023/09/30 11:14:20;;;;;;;3.58;1.60;;;;;;;;;;5001114;28;20188;-62
2023/09/30 11:16:47;;;;;;;3.67;1.67;;;;;;;;;;4998566;28;20201;-61
2023/09/30 11:19:14;;;;;;;3.03;1.40;;;;;;;;;;5004324;28;20286;-61
2023/09/30 11:21:40;;;;;;;2.40;1.17;;;;;;;;;;4998417;28;20181;-61
2023/09/30 11:24:07;;;;;;;3.28;1.40;;;;;;;;;;5007941;28;20318;-61
2023/09/30 11:26:34;;;;;;;5.63;1.63;;;;;;;;;;4997795;28;20186;-62
2023/09/30 11:29:06;;;;;;;4.55;1.60;;;;;;;;;;5002148;28;20259;-61
2023/09/30 11:31:34;;;;;;;4.90;1.92;;;;;;;;;;4983303;28;20189;-62
2023/09/30 11:34:04;;;;;;;2.65;1.20;;;;;;;;;;4983637;28;20584;-61
2023/09/30 11:36:31;;;;;;;5.05;1.52;;;;;;;;;;4989400;28;20272;-61
2023/09/30 11:38:57;;;;;;;2.38;1.50;;;;;;;;;;4990671;28;20592;-61
2023/09/30 11:41:32;;;;;;;4.53;1.45;;;;;;;;;;5002896;28;20197;-61
2023/09/30 11:44:04;;;;;;;3.83;1.27;;;;;;;;;;4991590;28;20180;-62
2023/09/30 11:46:33;;;;;;;2.88;1.20;;;;;;;;;;5005292;28;20173;-62
2023/09/30 11:49:03;;;;;;;2.70;1.13;;;;;;;;;;4994234;28;20193;-62
2023/09/30 11:51:29;;;;;;;3.58;1.48;;;;;;;;;;5001771;28;20187;-63
2023/09/30 11:53:57;;;;;;;2.20;1.40;;;;;;;;;;4998884;28;20204;-62
2023/09/30 11:56:28;;;;;;;4.50;1.80;;;;;;;;;;4994822;28;20553;-62
2023/09/30 11:58:54;;;;;;;2.00;1.25;;;;;;;;;;4992773;28;20845;-61
2023/09/30 12:01:21;;;;;;;2.35;1.10;;;;;;;;;;5008739;28;20472;-61
2023/09/30 12:03:48;;;;;;;2.33;1.20;;;;;;;;;;4995308;28;20173;-61
2023/09/30 12:06:16;;;;;;;2.58;1.38;;;;;;;;;;4989565;28;20519;-61
2023/09/30 12:08:42;;;;;;;2.85;1.42;;;;;;;;;;5001941;28;20180;-61
2023/09/30 12:11:08;;;;;;;2.03;1.30;;;;;;;;;;5002470;28;20212;-60
2023/09/30 12:13:34;;;;;;;2.38;1.20;;;;;;;;;;5002741;28;20185;-60
2023/09/30 12:15:59;;;;;;;2.45;1.20;;;;;;;;;;5003833;28;20200;-60
2023/09/30 12:18:26;;;;;;;1.70;0.95;;;;;;;;;;4996355;28;20204;-61
2023/09/30 12:20:52;;;;;;;2.40;1.13;;;;;;;;;;4995178;28;20445;-60
2023/09/30 12:23:19;;;;;;;5.13;1.42;;;;;;;;;;4993259;28;20250;-61
2023/09/30 12:25:45;;;;;;;4.25;1.20;;;;;;;;;;4996292;28;20173;-61
2023/09/30 12:28:13;;;;;;;3.47;1.33;;;;;;;;;;4992653;28;20231;-61
2023/09/30 12:30:40;;;;;;;3.50;1.25;;;;;;;;;;5014886;28;20200;-61
2023/09/30 12:33:06;;;;;;;3.53;1.60;;;;;;;;;;5003970;28;20234;-60
2023/09/30 12:35:33;;;;;;;2.15;1.20;;;;;;;;;;4996343;28;20184;-61
2023/09/30 12:37:58;;;;;;;2.63;1.25;;;;;;;;;;5001544;28;20596;-60
2023/09/30 12:40:24;;;;;;;3.90;1.33;;;;;;;;;;4997006;28;20251;-59
2023/09/30 12:42:50;;;;;;;2.90;0.98;;;;;;;;;;4992145;28;20256;-60
2023/09/30 12:45:18;;;;;;;2.72;1.38;;;;;;;;;;4991542;28;20462;-60
2023/09/30 12:47:44;;;;;;;3.95;1.67;;;;;;;;;;5005961;28;20440;-61
2023/09/30 12:50:10;;;;;;;4.47;1.27;;;;;;;;;;4990292;28;20190;-60
2023/09/30 12:52:36;;;;;;;2.40;1.25;;;;;;;;;;4993695;28;20192;-60
2023/09/30 12:55:04;;;;;;;4.00;1.33;;;;;;;;;;4992918;28;20189;-59
2023/09/30 12:57:30;;;;;;;4.95;1.38;;;;;;;;;;4992481;28;20228;-60
2023/09/30 12:59:56;;;;;;;3.70;1.65;;;;;;;;;;4987886;28;20244;-60
2023/09/30 13:02:22;;;;;;;3.72;1.17;;;;;;;;;;5001996;28;20254;-60
2023/09/30 13:04:48;;;;;;;4.03;1.17;;;;;;;;;;4999858;28;20205;-59
2023/09/30 13:07:15;;;;;;;3.50;1.35;;;;;;;;;;5003206;28;20208;-59
2023/09/30 13:09:41;;;;;;;4.80;1.30;;;;;;;;;;5005454;28;20827;-59
2023/09/30 13:12:07;;;;;;;2.70;1.38;;;;;;;;;;5008961;28;20208;-60
2023/09/30 13:14:33;;;;;;;5.05;1.17;;;;;;;;;;4993845;28;20275;-59
2023/09/30 13:17:00;;;;;;;3.72;1.35;;;;;;;;;;4998255;28;20197;-59
2023/09/30 13:19:26;;;;;;;2.88;1.30;;;;;;;;;;4993473;28;20521;-60
2023/09/30 13:21:53;;;;;;;2.50;1.20;;;;;;;;;;4995986;28;20181;-60
2023/09/30 13:24:21;;;;;;;3.20;1.50;;;;;;;;;;5007592;28;20197;-60
2023/09/30 13:26:48;;;;;;;3.78;1.40;;;;;;;;;;5007484;28;20191;-59
2023/09/30 13:29:16;;;;;;;3.20;1.52;;;;;;;;;;4999918;28;20189;-59
2023/09/30 13:31:42;;;;;;;5.60;1.20;;;;;;;;;;4999800;28;20254;-59
2023/09/30 13:34:08;;;;;;;1.85;1.00;;;;;;;;;;5010037;28;20255;-60
2023/09/30 13:36:34;;;;;;;2.35;1.30;;;;;;;;;;4999213;28;20375;-60
2023/09/30 13:39:00;;;;;;;4.50;1.35;;;;;;;;;;5003682;28;20730;-60
2023/09/30 13:41:27;;;;;;;2.25;1.08;;;;;;;;;;5008013;28;20184;-60
2023/09/30 13:43:53;;;;;;;4.57;1.23;;;;;;;;;;5009451;28;20234;-59
2023/09/30 13:46:21;;;;;;;3.08;1.23;;;;;;;;;;5004500;28;20461;-59
2023/09/30 13:48:51;;;;;;;3.17;1.15;;;;;;;;;;5003264;28;20192;-60
2023/09/30 13:51:17;;;;;;;2.67;1.15;;;;;;;;;;5003338;28;20719;-59
2023/09/30 13:53:43;;;;;;;3.90;1.50;;;;;;;;;;5014365;28;20180;-59
2023/09/30 13:56:10;;;;;;;3.72;1.10;;;;;;;;;;5005406;28;20220;-59
2023/09/30 13:58:36;;;;;;;2.63;1.20;;;;;;;;;;5008684;28;20200;-59
2023/09/30 14:01:02;;;;;;;4.88;1.60;;;;;;;;;;4996209;28;20444;-60
2023/09/30 14:03:29;;;;;;;2.00;0.95;;;;;;;;;;5007275;28;20191;-60
2023/09/30 14:05:56;;;;;;;3.90;1.13;;;;;;;;;;4993633;28;20204;-59
2023/09/30 14:08:22;;;;;;;3.40;1.27;;;;;;;;;;4992994;28;20184;-60
2023/09/30 14:10:48;;;;;;;3.38;1.40;;;;;;;;;;4999757;28;20185;-60
2023/09/30 14:13:14;;;;;;;3.15;1.38;;;;;;;;;;5004698;28;20200;-59
2023/09/30 14:15:40;;;;;;;3.28;1.35;;;;;;;;;;5005164;28;20583;-59
2023/09/30 14:18:07;;;;;;;2.55;1.15;;;;;;;;;;5003354;28;20197;-59
2023/09/30 14:20:34;;;;;;;4.22;1.38;;;;;;;;;;4994527;28;20204;-60
2023/09/30 14:22:59;;;;;;;3.42;1.48;;;;;;;;;;4998361;28;20217;-59
2023/09/30 14:25:26;;;;;;;1.60;1.00;;;;;;;;;;5007531;28;20204;-59
2023/09/30 14:27:52;;;;;;;2.47;1.23;;;;;;;;;;5010441;28;20631;-60
2023/09/30 14:30:19;;;;;;;4.53;1.38;;;;;;;;;;5001767;28;20220;-59
2023/09/30 14:32:45;;;;;;;5.13;1.40;;;;;;;;;;4998585;28;20177;-59
2023/09/30 14:35:11;;;;;;;2.25;1.30;;;;;;;;;;4994642;28;20193;-59
2023/09/30 14:37:37;;;;;;;2.67;1.08;;;;;;;;;;5003430;28;20267;-59
2023/09/30 14:40:10;;;;;;;2.40;1.30;;;;;;;;;;5016787;28;20219;-59